sensor_id;sensor_type;location;lat;lon;timestamp;P1;durP1;ratioP1;P2;durP2;ratioP2
12373;SDS011;6251;51.762;8.660;2022-07-23T01:13:14;8.75;;;6.93;;
12373;SDS011;6251;51.762;8.660;2022-07-23T04:17:05;8.65;;;7.65;;
12373;SDS011;6251;51.762;8.660;2022-07-23T04:37:49;9.38;;;8.40;;
12373;SDS011;6251;51.762;8.660;2022-07-23T05:29:36;10.18;;;9.18;;
12373;SDS011;6251;51.762;8.660;2022-07-23T05:39:37;13.77;;;11.30;;
12373;SDS011;6251;51.762;8.660;2022-07-23T05:49:37;12.75;;;10.70;;
12373;SDS011;6251;51.762;8.660;2022-07-23T05:59:39;13.60;;;11.68;;
12373;SDS011;6251;51.762;8.660;2022-07-23T06:09:39;15.87;;;12.37;;
12373;SDS011;6251;51.762;8.660;2022-07-23T06:19:40;12.32;;;10.90;;
12373;SDS011;6251;51.762;8.660;2022-07-23T06:29:41;12.45;;;11.20;;
12373;SDS011;6251;51.762;8.660;2022-07-23T06:39:53;11.52;;;10.10;;
12373;SDS011;6251;51.762;8.660;2022-07-23T06:50:12;13.13;;;9.18;;
12373;SDS011;6251;51.762;8.660;2022-07-23T07:00:13;10.50;;;8.60;;
12373;SDS011;6251;51.762;8.660;2022-07-23T07:10:14;9.23;;;8.30;;
12373;SDS011;6251;51.762;8.660;2022-07-23T07:31:18;10.35;;;8.98;;
12373;SDS011;6251;51.762;8.660;2022-07-23T07:52:30;10.05;;;8.60;;
12373;SDS011;6251;51.762;8.660;2022-07-23T08:02:39;9.25;;;8.32;;
12373;SDS011;6251;51.762;8.660;2022-07-23T08:12:42;9.85;;;7.35;;
12373;SDS011;6251;51.762;8.660;2022-07-23T08:22:55;6.53;;;5.93;;
12373;SDS011;6251;51.762;8.660;2022-07-23T08:33:04;5.30;;;4.80;;
12373;SDS011;6251;51.762;8.660;2022-07-23T08:43:20;6.47;;;5.80;;
12373;SDS011;6251;51.762;8.660;2022-07-23T08:53:48;6.43;;;5.15;;
12373;SDS011;6251;51.762;8.660;2022-07-23T09:04:00;5.70;;;4.20;;
12373;SDS011;6251;51.762;8.660;2022-07-23T09:47:27;3.95;;;3.65;;
12373;SDS011;6251;51.762;8.660;2022-07-23T09:57:29;5.40;;;4.87;;
12373;SDS011;6251;51.762;8.660;2022-07-23T10:07:34;5.15;;;4.55;;
12373;SDS011;6251;51.762;8.660;2022-07-23T10:17:38;5.37;;;4.97;;
12373;SDS011;6251;51.762;8.660;2022-07-23T10:27:55;5.55;;;5.10;;
12373;SDS011;6251;51.762;8.660;2022-07-23T10:38:32;6.15;;;4.60;;
12373;SDS011;6251;51.762;8.660;2022-07-23T10:59:24;3.78;;;3.58;;
12373;SDS011;6251;51.762;8.660;2022-07-23T11:09:40;4.62;;;4.30;;
12373;SDS011;6251;51.762;8.660;2022-07-23T11:40:46;3.72;;;3.37;;
12373;SDS011;6251;51.762;8.660;2022-07-23T11:50:52;3.17;;;2.60;;
12373;SDS011;6251;51.762;8.660;2022-07-23T12:12:07;3.00;;;2.70;;
12373;SDS011;6251;51.762;8.660;2022-07-23T12:22:08;2.95;;;2.75;;
12373;SDS011;6251;51.762;8.660;2022-07-23T12:42:20;2.67;;;2.50;;
12373;SDS011;6251;51.762;8.660;2022-07-23T13:03:38;2.45;;;2.35;;
12373;SDS011;6251;51.762;8.660;2022-07-23T13:13:40;4.95;;;2.90;;
12373;SDS011;6251;51.762;8.660;2022-07-23T13:23:42;2.92;;;2.72;;
12373;SDS011;6251;51.762;8.660;2022-07-23T13:44:25;2.62;;;2.45;;
12373;SDS011;6251;51.762;8.660;2022-07-23T13:54:26;2.47;;;2.30;;
12373;SDS011;6251;51.762;8.660;2022-07-23T14:04:27;2.20;;;2.10;;
12373;SDS011;6251;51.762;8.660;2022-07-23T14:14:28;2.62;;;2.40;;
12373;SDS011;6251;51.762;8.660;2022-07-23T14:24:28;2.17;;;1.95;;
12373;SDS011;6251;51.762;8.660;2022-07-23T14:34:29;1.48;;;1.48;;
12373;SDS011;6251;51.762;8.660;2022-07-23T14:44:30;1.85;;;1.75;;
12373;SDS011;6251;51.762;8.660;2022-07-23T14:54:31;1.83;;;1.73;;
12373;SDS011;6251;51.762;8.660;2022-07-23T15:04:32;1.60;;;1.50;;
12373;SDS011;6251;51.762;8.660;2022-07-23T15:14:33;1.67;;;1.60;;
12373;SDS011;6251;51.762;8.660;2022-07-23T15:24:33;2.03;;;1.77;;
12373;SDS011;6251;51.762;8.660;2022-07-23T15:34:34;1.65;;;1.42;;
12373;SDS011;6251;51.762;8.660;2022-07-23T15:44:35;1.83;;;1.80;;
12373;SDS011;6251;51.762;8.660;2022-07-23T15:54:36;1.67;;;1.58;;
12373;SDS011;6251;51.762;8.660;2022-07-23T16:04:40;1.95;;;1.60;;
12373;SDS011;6251;51.762;8.660;2022-07-23T16:14:40;1.93;;;1.87;;
12373;SDS011;6251;51.762;8.660;2022-07-23T16:24:41;1.67;;;1.50;;
12373;SDS011;6251;51.762;8.660;2022-07-23T16:34:43;1.95;;;1.85;;
12373;SDS011;6251;51.762;8.660;2022-07-23T16:44:44;1.63;;;1.50;;
12373;SDS011;6251;51.762;8.660;2022-07-23T16:54:45;1.70;;;1.65;;
12373;SDS011;6251;51.762;8.660;2022-07-23T17:04:45;1.50;;;1.48;;
12373;SDS011;6251;51.762;8.660;2022-07-23T17:14:46;1.95;;;1.80;;
12373;SDS011;6251;51.762;8.660;2022-07-23T17:24:46;1.50;;;1.50;;
12373;SDS011;6251;51.762;8.660;2022-07-23T17:34:47;1.40;;;1.40;;
12373;SDS011;6251;51.762;8.660;2022-07-23T17:44:48;1.57;;;1.57;;
12373;SDS011;6251;51.762;8.660;2022-07-23T17:54:49;1.30;;;1.30;;
12373;SDS011;6251;51.762;8.660;2022-07-23T18:04:49;1.98;;;1.70;;
12373;SDS011;6251;51.762;8.660;2022-07-23T18:14:50;1.85;;;1.50;;
12373;SDS011;6251;51.762;8.660;2022-07-23T18:24:51;1.62;;;1.50;;
12373;SDS011;6251;51.762;8.660;2022-07-23T18:34:52;1.62;;;1.52;;
12373;SDS011;6251;51.762;8.660;2022-07-23T18:44:54;1.60;;;1.60;;
12373;SDS011;6251;51.762;8.660;2022-07-23T18:54:54;1.60;;;1.50;;
12373;SDS011;6251;51.762;8.660;2022-07-23T19:04:55;1.42;;;1.42;;
12373;SDS011;6251;51.762;8.660;2022-07-23T19:14:56;1.67;;;1.67;;
12373;SDS011;6251;51.762;8.660;2022-07-23T19:24:57;2.05;;;1.98;;
12373;SDS011;6251;51.762;8.660;2022-07-23T19:34:58;2.17;;;2.08;;
12373;SDS011;6251;51.762;8.660;2022-07-23T19:44:58;2.20;;;2.10;;
12373;SDS011;6251;51.762;8.660;2022-07-23T19:54:59;1.80;;;1.80;;
12373;SDS011;6251;51.762;8.660;2022-07-23T20:05:00;1.90;;;1.80;;
12373;SDS011;6251;51.762;8.660;2022-07-23T20:15:00;1.80;;;1.70;;
12373;SDS011;6251;51.762;8.660;2022-07-23T20:25:02;1.60;;;1.60;;
12373;SDS011;6251;51.762;8.660;2022-07-23T20:35:05;1.73;;;1.73;;
12373;SDS011;6251;51.762;8.660;2022-07-23T20:45:07;1.90;;;1.83;;
12373;SDS011;6251;51.762;8.660;2022-07-23T20:55:19;2.10;;;2.00;;
12373;SDS011;6251;51.762;8.660;2022-07-23T23:07:24;3.30;;;3.10;;
